createdAt,value
2023-02-14T00:01:33.512Z,4.30
2023-02-14T00:04:01.786Z,4.30
2023-02-14T00:06:35.262Z,4.20
2023-02-14T00:09:03.792Z,4.20
2023-02-14T00:11:31.773Z,4.20
2023-02-14T00:14:17.785Z,4.20
2023-02-14T00:16:46.049Z,4.10
2023-02-14T00:19:15.922Z,4.10
2023-02-14T00:21:45.743Z,4.10
2023-02-14T00:24:15.809Z,4.10
2023-02-14T00:26:44.290Z,4.10
2023-02-14T00:29:14.437Z,4.00
2023-02-14T00:31:43.143Z,4.00
2023-02-14T00:34:12.164Z,4.10
2023-02-14T00:36:40.682Z,4.10
2023-02-14T00:39:12.695Z,4.10
2023-02-14T00:41:41.153Z,4.10
2023-02-14T00:44:10.297Z,4.00
2023-02-14T00:46:38.687Z,4.10
2023-02-14T00:49:06.887Z,4.00
2023-02-14T00:51:34.952Z,4.00
2023-02-14T00:54:03.419Z,4.00
2023-02-14T00:56:33.379Z,4.00
2023-02-14T00:59:01.402Z,4.00
2023-02-14T01:01:29.621Z,4.00
2023-02-14T01:03:58.976Z,4.00
2023-02-14T01:06:26.980Z,4.00
2023-02-14T01:08:54.959Z,4.00
2023-02-14T01:11:25.200Z,3.90
2023-02-14T01:13:58.820Z,3.90
2023-02-14T01:16:28.878Z,3.90
2023-02-14T01:18:57.357Z,3.80
2023-02-14T01:21:26.969Z,3.80
2023-02-14T01:23:57.614Z,3.80
2023-02-14T01:26:27.290Z,3.70
2023-02-14T01:28:56.892Z,3.70
2023-02-14T01:31:26.726Z,3.70
2023-02-14T01:33:55.882Z,3.70
2023-02-14T01:36:25.792Z,3.70
2023-02-14T01:38:55.914Z,3.70
2023-02-14T01:41:25.659Z,3.60
2023-02-14T01:43:58.931Z,3.60
2023-02-14T01:46:29.157Z,3.60
2023-02-14T01:49:02.325Z,3.60
2023-02-14T01:51:33.462Z,3.60
2023-02-14T01:54:02.388Z,3.60
2023-02-14T01:56:35.451Z,3.60
2023-02-14T01:59:09.274Z,3.60
2023-02-14T02:01:37.625Z,3.60
2023-02-14T02:04:11.035Z,3.60
2023-02-14T02:06:42.072Z,3.60
2023-02-14T02:09:15.123Z,3.60
2023-02-14T02:11:43.734Z,3.60
2023-02-14T02:14:16.026Z,3.70
2023-02-14T02:17:17.246Z,3.70
2023-02-14T02:20:22.761Z,3.70
2023-02-14T02:23:45.045Z,3.70
2023-02-14T02:26:42.768Z,3.70
2023-02-14T02:29:33.640Z,3.50
2023-02-14T02:32:36.476Z,3.60
2023-02-14T02:35:26.512Z,3.50
2023-02-14T02:38:05.850Z,3.00
2023-02-14T02:40:48.294Z,3.00
2023-02-14T02:43:29.221Z,3.30
2023-02-14T02:46:19.591Z,3.50
2023-02-14T02:48:55.574Z,3.50
2023-02-14T02:51:50.802Z,3.60
2023-02-14T02:54:25.800Z,3.60
2023-02-14T02:56:58.765Z,3.40
2023-02-14T02:59:30.787Z,3.40
2023-02-14T03:02:03.342Z,3.30
2023-02-14T03:04:53.152Z,3.20
2023-02-14T03:07:36.963Z,3.40
2023-02-14T03:10:10.411Z,3.50
2023-02-14T03:13:11.113Z,3.60
2023-02-14T03:16:12.112Z,3.60
2023-02-14T03:19:06.740Z,3.60
2023-02-14T03:21:44.580Z,3.40
2023-02-14T03:24:25.886Z,3.20
2023-02-14T03:27:00.851Z,3.40
2023-02-14T03:29:37.406Z,3.50
2023-02-14T03:32:12.566Z,3.60
2023-02-14T03:34:53.726Z,3.60
2023-02-14T03:37:27.521Z,3.70
2023-02-14T03:40:05.751Z,3.70
2023-02-14T03:42:38.996Z,3.70
2023-02-14T03:45:12.093Z,3.70
2023-02-14T03:47:42.313Z,3.40
2023-02-14T03:50:14.559Z,3.20
2023-02-14T03:52:44.841Z,3.10
2023-02-14T03:55:16.511Z,2.90
2023-02-14T03:57:51.208Z,2.90
2023-02-14T04:00:20.287Z,2.70
2023-02-14T04:02:52.483Z,2.70
2023-02-14T04:05:26.165Z,2.60
2023-02-14T04:07:55.928Z,2.60
2023-02-14T04:10:26.463Z,2.60
2023-02-14T04:12:54.555Z,2.50
2023-02-14T04:15:22.841Z,2.40
2023-02-14T04:18:08.382Z,2.40
2023-02-14T04:20:37.226Z,2.50
2023-02-14T04:23:05.248Z,2.60
2023-02-14T04:25:34.589Z,2.70
2023-02-14T04:28:02.611Z,2.80
2023-02-14T04:30:30.656Z,3.00
2023-02-14T04:32:58.644Z,3.00
2023-02-14T04:35:26.778Z,2.90
2023-02-14T04:37:54.776Z,2.90
2023-02-14T04:40:23.031Z,2.90
2023-02-14T04:42:52.377Z,2.80
2023-02-14T04:45:20.483Z,2.90
2023-02-14T04:47:48.607Z,2.90
2023-02-14T04:50:16.672Z,2.80
2023-02-14T04:52:44.840Z,2.60
2023-02-14T04:55:13.011Z,2.60
2023-02-14T04:57:41.076Z,2.50
2023-02-14T05:00:11.551Z,2.40
2023-02-14T05:02:39.551Z,2.40
2023-02-14T05:05:08.531Z,2.50
2023-02-14T05:07:36.515Z,2.50
2023-02-14T05:10:04.980Z,2.50
2023-02-14T05:12:33.202Z,2.40
2023-02-14T05:15:01.217Z,2.50
2023-02-14T05:17:30.533Z,2.60
2023-02-14T05:19:58.520Z,2.70
2023-02-14T05:22:26.682Z,2.60
2023-02-14T05:24:54.658Z,2.50
2023-02-14T05:27:22.699Z,2.60
2023-02-14T05:29:50.748Z,2.50
2023-02-14T05:32:18.781Z,2.40
2023-02-14T05:34:48.104Z,2.40
2023-02-14T05:37:16.154Z,2.40
2023-02-14T05:39:44.098Z,2.50
2023-02-14T05:42:12.069Z,2.50
2023-02-14T05:44:40.134Z,2.60
2023-02-14T05:47:08.079Z,2.60
2023-02-14T05:49:36.375Z,2.50
2023-02-14T05:52:06.151Z,2.50
2023-02-14T05:54:34.155Z,2.50
2023-02-14T05:57:02.211Z,2.40
2023-02-14T05:59:30.207Z,2.40
2023-02-14T06:01:58.210Z,2.50
2023-02-14T06:04:26.455Z,2.60
2023-02-14T06:06:54.615Z,2.80
2023-02-14T06:09:23.963Z,2.70
2023-02-14T06:11:53.753Z,2.60
2023-02-14T06:14:23.322Z,2.70
2023-02-14T06:16:51.785Z,2.80
2023-02-14T06:19:20.077Z,2.90
2023-02-14T06:21:48.315Z,2.90
2023-02-14T06:24:16.436Z,2.90
2023-02-14T06:26:45.878Z,2.90
2023-02-14T06:29:13.856Z,2.80
2023-02-14T06:31:42.063Z,2.50
2023-02-14T06:34:10.319Z,2.40
2023-02-14T06:36:38.752Z,2.40
2023-02-14T06:39:06.726Z,2.30
2023-02-14T06:41:34.732Z,2.30
2023-02-14T06:44:06.130Z,2.30
2023-02-14T06:46:34.170Z,2.50
2023-02-14T06:49:02.189Z,2.60
2023-02-14T06:51:30.187Z,2.70
2023-02-14T06:53:58.283Z,2.80
2023-02-14T06:56:26.315Z,2.60
2023-02-14T06:58:54.287Z,2.70
2023-02-14T07:01:23.653Z,2.70
2023-02-14T07:03:51.829Z,2.70
2023-02-14T07:06:19.955Z,2.80
2023-02-14T07:08:48.031Z,3.00
2023-02-14T07:11:16.089Z,3.00
2023-02-14T07:13:44.940Z,2.80
2023-02-14T07:16:13.072Z,2.40
2023-02-14T07:18:42.499Z,2.30
2023-02-14T07:21:10.517Z,2.50
2023-02-14T07:23:38.636Z,2.70
2023-02-14T07:26:06.910Z,2.70
2023-02-14T07:28:35.005Z,2.70
2023-02-14T07:31:03.614Z,2.70
2023-02-14T07:33:31.950Z,2.80
2023-02-14T07:36:05.619Z,2.90
2023-02-14T07:38:33.609Z,3.00
2023-02-14T07:41:01.851Z,3.00
2023-02-14T07:43:29.948Z,2.80
2023-02-14T07:45:58.075Z,2.90
2023-02-14T07:48:26.891Z,2.90
2023-02-14T07:50:57.993Z,3.00
2023-02-14T07:53:27.754Z,2.90
2023-02-14T07:55:55.916Z,3.10
2023-02-14T07:58:24.073Z,3.10
2023-02-14T08:00:52.457Z,3.20
2023-02-14T08:03:20.446Z,3.30
2023-02-14T08:05:57.131Z,3.20
2023-02-14T08:08:28.662Z,3.30
2023-02-14T08:10:56.906Z,3.30
2023-02-14T08:13:23.990Z,3.40
2023-02-14T08:16:07.649Z,3.50
2023-02-14T08:18:37.714Z,3.40
2023-02-14T08:21:07.048Z,3.50
2023-02-14T08:23:36.865Z,3.40
2023-02-14T08:26:05.119Z,3.40
2023-02-14T08:28:33.550Z,3.30
2023-02-14T08:31:01.946Z,3.30
2023-02-14T08:33:30.365Z,3.40
2023-02-14T08:35:58.482Z,3.50
2023-02-14T08:38:26.523Z,3.50
2023-02-14T08:40:56.138Z,3.60
2023-02-14T08:43:24.252Z,3.80
2023-02-14T08:45:56.284Z,3.90
2023-02-14T08:48:26.712Z,3.90
2023-02-14T08:50:54.703Z,3.90
2023-02-14T08:53:23.133Z,4.00
2023-02-14T08:55:51.109Z,4.00
2023-02-14T08:58:20.498Z,3.90
2023-02-14T09:00:48.483Z,3.90
2023-02-14T09:03:16.511Z,3.90
2023-02-14T09:05:44.560Z,4.00
2023-02-14T09:08:12.569Z,4.10
2023-02-14T09:10:40.588Z,4.20
2023-02-14T09:13:08.591Z,4.30
2023-02-14T09:15:38.031Z,4.40
2023-02-14T09:18:06.220Z,4.50
2023-02-14T09:20:34.287Z,4.60
2023-02-14T09:23:02.283Z,4.60
2023-02-14T09:25:30.384Z,4.70
2023-02-14T09:27:58.372Z,4.80
2023-02-14T09:30:26.476Z,4.90
2023-02-14T09:32:56.113Z,5.10
2023-02-14T09:35:41.602Z,5.20
2023-02-14T09:38:17.956Z,5.20
2023-02-14T09:40:46.481Z,5.30
2023-02-14T09:43:19.521Z,5.40
2023-02-14T09:45:52.548Z,5.40
2023-02-14T09:48:28.351Z,5.60
2023-02-14T09:50:59.747Z,5.60
2023-02-14T09:53:30.281Z,5.70
2023-02-14T09:56:07.730Z,5.80
2023-02-14T09:58:41.646Z,5.90
2023-02-14T10:01:16.748Z,6.00
2023-02-14T10:03:58.963Z,6.10
2023-02-14T10:06:49.902Z,6.10
2023-02-14T10:09:50.193Z,6.20
2023-02-14T10:12:23.882Z,6.40
2023-02-14T10:14:54.108Z,6.50
2023-02-14T10:17:29.488Z,6.60
2023-02-14T10:20:03.602Z,6.70
2023-02-14T10:22:42.295Z,6.70
2023-02-14T10:25:21.940Z,6.80
2023-02-14T10:27:50.303Z,6.80
2023-02-14T10:30:21.292Z,6.90
2023-02-14T10:32:51.917Z,6.90
2023-02-14T10:35:36.674Z,7.00
2023-02-14T10:38:17.610Z,7.10
2023-02-14T10:41:02.610Z,7.20
2023-02-14T10:43:38.144Z,7.30
2023-02-14T10:46:16.510Z,7.50
2023-02-14T10:48:54.741Z,7.60
2023-02-14T10:51:33.513Z,7.90
2023-02-14T10:54:14.996Z,8.00
2023-02-14T10:56:46.752Z,8.10
2023-02-14T10:59:23.378Z,8.30
2023-02-14T11:01:54.173Z,8.30
2023-02-14T11:04:24.683Z,8.40
2023-02-14T11:06:54.544Z,8.40
2023-02-14T11:09:22.912Z,8.50
2023-02-14T11:11:54.204Z,8.50
2023-02-14T11:14:26.853Z,8.60
2023-02-14T11:16:56.493Z,8.80
2023-02-14T11:19:27.025Z,8.90
2023-02-14T11:21:58.018Z,8.90
2023-02-14T11:24:33.565Z,9.00
2023-02-14T11:27:04.835Z,9.20
2023-02-14T11:29:37.391Z,9.30
2023-02-14T11:32:10.356Z,9.30
2023-02-14T11:34:41.092Z,9.40
2023-02-14T11:37:28.416Z,9.60
2023-02-14T11:39:59.102Z,9.70
2023-02-14T11:42:54.582Z,9.60
2023-02-14T11:45:32.325Z,9.50
2023-02-14T11:48:19.991Z,9.60
2023-02-14T11:50:58.439Z,9.60
2023-02-14T11:53:32.819Z,9.70
2023-02-14T11:56:01.118Z,9.90
2023-02-14T11:58:37.569Z,9.90
2023-02-14T12:01:06.384Z,10.00
2023-02-14T12:03:40.870Z,10.00
2023-02-14T12:06:09.048Z,10.20
2023-02-14T12:08:39.528Z,10.20
2023-02-14T12:11:19.102Z,10.30
2023-02-14T12:13:54.663Z,10.40
2023-02-14T12:16:28.387Z,10.40
2023-02-14T12:19:00.702Z,10.50
2023-02-14T12:21:45.310Z,10.70
2023-02-14T12:24:21.470Z,10.80
2023-02-14T12:26:57.118Z,10.80
2023-02-14T12:29:31.332Z,10.80
2023-02-14T12:32:02.683Z,10.90
2023-02-14T12:34:31.251Z,11.00
2023-02-14T12:37:13.158Z,11.10
2023-02-14T12:39:59.963Z,11.10
2023-02-14T12:42:43.814Z,11.20
2023-02-14T12:45:21.030Z,11.20
2023-02-14T12:48:01.225Z,11.30
2023-02-14T12:50:44.908Z,11.30
2023-02-14T12:53:32.101Z,11.40
2023-02-14T12:56:08.257Z,11.40
2023-02-14T12:58:45.059Z,11.50
2023-02-14T13:01:39.289Z,11.50
2023-02-14T13:04:29.710Z,11.60
2023-02-14T13:07:05.813Z,11.60
2023-02-14T13:09:42.357Z,11.70
2023-02-14T13:12:29.745Z,11.80
2023-02-14T13:15:12.813Z,11.80
2023-02-14T13:17:46.008Z,12.10
2023-02-14T13:20:42.546Z,12.00
2023-02-14T13:23:16.765Z,12.00
2023-02-14T13:25:50.680Z,12.10
2023-02-14T13:28:22.498Z,12.20
2023-02-14T13:30:50.766Z,12.10
2023-02-14T13:33:34.943Z,12.20
2023-02-14T13:36:07.795Z,12.50
2023-02-14T13:38:44.794Z,12.50
2023-02-14T13:41:14.158Z,12.60
2023-02-14T13:43:56.317Z,12.70
2023-02-14T13:46:53.166Z,12.80
2023-02-14T13:49:31.807Z,13.00
2023-02-14T13:52:03.628Z,12.80
2023-02-14T13:54:38.760Z,12.90
2023-02-14T13:57:26.944Z,12.80
2023-02-14T14:00:25.439Z,12.90
2023-02-14T14:02:55.040Z,13.00
2023-02-14T14:06:02.608Z,13.00
2023-02-14T14:08:45.858Z,13.10
2023-02-14T14:12:01.852Z,12.90
2023-02-14T14:14:39.906Z,12.80
2023-02-14T14:17:27.586Z,12.80
2023-02-14T14:20:00.439Z,12.80
2023-02-14T14:22:29.785Z,12.80
2023-02-14T14:25:00.622Z,12.80
2023-02-14T14:27:33.032Z,12.80
2023-02-14T14:30:02.758Z,12.70
2023-02-14T14:32:34.510Z,12.60
2023-02-14T14:35:05.076Z,12.50
2023-02-14T14:37:35.358Z,12.40
2023-02-14T14:40:06.081Z,12.30
2023-02-14T14:42:38.721Z,12.20
2023-02-14T14:45:10.722Z,12.10
2023-02-14T14:47:43.985Z,12.00
2023-02-14T14:50:18.718Z,11.90
2023-02-14T14:52:49.865Z,11.80
2023-02-14T14:55:21.870Z,11.70
2023-02-14T14:57:52.539Z,11.60
2023-02-14T15:00:24.379Z,11.50
2023-02-14T15:03:14.774Z,11.50
2023-02-14T15:05:45.602Z,11.40
2023-02-14T15:08:18.122Z,11.40
2023-02-14T15:10:50.779Z,11.30
2023-02-14T15:13:36.500Z,11.20
2023-02-14T15:16:04.784Z,11.20
2023-02-14T15:18:34.271Z,11.10
2023-02-14T15:21:10.754Z,11.00
2023-02-14T15:23:38.819Z,10.90
2023-02-14T15:26:07.020Z,10.90
2023-02-14T15:28:38.546Z,10.80
2023-02-14T15:31:07.970Z,10.80
2023-02-14T15:33:37.974Z,10.70
2023-02-14T15:36:10.100Z,10.60
2023-02-14T15:38:42.034Z,10.60
2023-02-14T15:41:11.163Z,10.50
2023-02-14T15:43:40.081Z,10.40
2023-02-14T15:46:21.197Z,10.40
2023-02-14T15:48:51.583Z,10.30
2023-02-14T15:51:22.530Z,10.30
2023-02-14T15:53:54.263Z,10.20
2023-02-14T15:56:26.069Z,10.10
2023-02-14T15:59:00.873Z,10.10
2023-02-14T16:01:29.870Z,10.00
2023-02-14T16:04:02.693Z,10.00
2023-02-14T16:06:34.530Z,9.90
2023-02-14T16:09:03.649Z,9.80
2023-02-14T16:11:35.482Z,9.80
2023-02-14T16:14:22.178Z,9.70
2023-02-14T16:17:03.933Z,9.70
2023-02-14T16:19:41.490Z,9.60
2023-02-14T16:22:10.790Z,9.50
2023-02-14T16:24:38.974Z,9.50
2023-02-14T16:27:13.277Z,9.40
2023-02-14T16:29:41.567Z,9.40
2023-02-14T16:32:16.965Z,9.30
2023-02-14T16:34:48.420Z,9.30
2023-02-14T16:37:22.352Z,9.20
2023-02-14T16:39:51.186Z,9.20
2023-02-14T16:42:20.156Z,9.10
2023-02-14T16:44:48.637Z,9.10
2023-02-14T16:47:18.402Z,9.00
2023-02-14T16:49:48.665Z,9.00
2023-02-14T16:52:20.676Z,9.00
2023-02-14T16:54:49.873Z,8.90
2023-02-14T16:57:21.581Z,8.90
2023-02-14T16:59:50.353Z,8.80
2023-02-14T17:02:21.546Z,8.80
2023-02-14T17:04:50.956Z,8.70
2023-02-14T17:07:19.076Z,8.60
2023-02-14T17:09:51.909Z,8.60
2023-02-14T17:12:30.376Z,8.50
2023-02-14T17:15:02.978Z,8.60
2023-02-14T17:17:31.485Z,8.50
2023-02-14T17:20:00.881Z,8.50
2023-02-14T17:22:28.840Z,8.50
2023-02-14T17:24:57.262Z,8.50
2023-02-14T17:27:25.287Z,8.40
2023-02-14T17:29:53.273Z,8.30
2023-02-14T17:32:21.320Z,8.30
2023-02-14T17:34:49.737Z,8.20
2023-02-14T17:37:19.380Z,8.20
2023-02-14T17:39:47.375Z,8.20
2023-02-14T17:42:15.381Z,8.20
2023-02-14T17:44:44.766Z,8.20
2023-02-14T17:47:14.793Z,8.10
2023-02-14T17:49:42.796Z,8.10
2023-02-14T17:52:10.810Z,8.10
2023-02-14T17:54:40.592Z,8.10
2023-02-14T17:57:08.587Z,8.00
2023-02-14T17:59:37.019Z,8.00
2023-02-14T18:02:05.107Z,8.00
2023-02-14T18:04:34.890Z,8.00
2023-02-14T18:07:02.939Z,8.00
2023-02-14T18:09:31.042Z,8.00
2023-02-14T18:12:00.421Z,7.90
2023-02-14T18:14:28.586Z,7.90
2023-02-14T18:16:56.528Z,7.90
2023-02-14T18:19:24.472Z,7.80
2023-02-14T18:21:53.457Z,7.80
2023-02-14T18:24:21.930Z,7.80
2023-02-14T18:26:50.147Z,7.80
2023-02-14T18:29:19.471Z,7.70
2023-02-14T18:31:47.712Z,7.70
2023-02-14T18:34:15.823Z,7.70
2023-02-14T18:36:43.861Z,7.70
2023-02-14T18:39:12.226Z,7.60
2023-02-14T18:41:40.252Z,7.60
2023-02-14T18:44:08.506Z,7.60
2023-02-14T18:46:38.174Z,7.50
2023-02-14T18:49:08.385Z,7.40
2023-02-14T18:51:39.310Z,7.40
2023-02-14T18:54:08.150Z,7.50
2023-02-14T18:56:38.028Z,7.50
2023-02-14T18:59:08.721Z,7.50
2023-02-14T19:01:40.704Z,7.40
2023-02-14T19:04:12.047Z,7.40
2023-02-14T19:06:41.859Z,7.40
2023-02-14T19:09:12.549Z,7.40
2023-02-14T19:11:41.031Z,7.40
2023-02-14T19:14:10.920Z,7.20
2023-02-14T19:16:43.867Z,7.20
2023-02-14T19:19:12.210Z,7.30
2023-02-14T19:21:40.257Z,7.20
2023-02-14T19:24:09.094Z,7.20
2023-02-14T19:26:42.235Z,7.20
2023-02-14T19:29:12.565Z,7.10
2023-02-14T19:31:45.136Z,7.10
2023-02-14T19:34:18.050Z,7.00
2023-02-14T19:36:46.269Z,7.00
2023-02-14T19:39:14.645Z,7.00
2023-02-14T19:41:43.387Z,7.00
2023-02-14T19:44:14.258Z,7.00
2023-02-14T19:46:44.482Z,7.00
2023-02-14T19:49:15.439Z,6.80
2023-02-14T19:51:43.870Z,6.90
2023-02-14T19:54:12.681Z,6.90
2023-02-14T19:56:43.637Z,7.00
2023-02-14T19:59:14.363Z,7.00
2023-02-14T20:01:46.350Z,7.00
2023-02-14T20:04:16.593Z,7.00
2023-02-14T20:06:45.950Z,7.00
2023-02-14T20:09:15.796Z,7.00
2023-02-14T20:11:50.114Z,7.00
2023-02-14T20:14:19.866Z,6.90
2023-02-14T20:16:50.069Z,6.80
2023-02-14T20:19:20.227Z,6.80
2023-02-14T20:21:51.304Z,6.60
2023-02-14T20:24:21.512Z,6.60
2023-02-14T20:26:50.020Z,6.60
2023-02-14T20:29:19.706Z,6.80
2023-02-14T20:31:51.658Z,6.80
2023-02-14T20:34:20.396Z,6.80
2023-02-14T20:36:53.096Z,6.80
2023-02-14T20:39:24.259Z,6.70
2023-02-14T20:41:53.941Z,6.60
2023-02-14T20:44:22.614Z,6.60
2023-02-14T20:46:53.631Z,6.50
2023-02-14T20:49:22.799Z,6.50
2023-02-14T20:51:51.937Z,6.60
2023-02-14T20:54:21.346Z,6.60
2023-02-14T20:56:50.798Z,6.50
2023-02-14T20:59:24.374Z,6.40
2023-02-14T21:01:53.953Z,6.50
2023-02-14T21:04:22.014Z,6.50
2023-02-14T21:06:50.082Z,6.50
2023-02-14T21:09:20.466Z,6.60
2023-02-14T21:11:49.600Z,6.60
2023-02-14T21:14:18.132Z,6.50
2023-02-14T21:16:46.203Z,6.40
2023-02-14T21:19:17.654Z,6.40
2023-02-14T21:21:45.937Z,6.40
2023-02-14T21:24:15.898Z,6.50
2023-02-14T21:26:44.787Z,6.50
2023-02-14T21:29:12.776Z,6.40
2023-02-14T21:31:42.459Z,6.40
2023-02-14T21:34:10.770Z,6.40
2023-02-14T21:36:40.088Z,6.50
2023-02-14T21:39:08.707Z,6.50
2023-02-14T21:41:38.133Z,6.40
2023-02-14T21:44:07.165Z,6.40
2023-02-14T21:46:38.354Z,6.50
2023-02-14T21:49:24.738Z,6.60
2023-02-14T21:51:54.137Z,6.60
2023-02-14T21:54:22.434Z,6.60
2023-02-14T21:56:50.454Z,6.60
2023-02-14T21:59:18.684Z,6.50
2023-02-14T22:01:46.761Z,6.50
2023-02-14T22:04:14.845Z,6.50
2023-02-14T22:06:43.769Z,6.50
2023-02-14T22:09:15.112Z,6.40
2023-02-14T22:11:43.109Z,6.40
2023-02-14T22:14:11.277Z,6.30
2023-02-14T22:16:39.321Z,6.30
2023-02-14T22:19:08.897Z,6.30
2023-02-14T22:21:40.014Z,6.20
2023-02-14T22:24:08.189Z,6.10
2023-02-14T22:26:40.813Z,6.10
2023-02-14T22:29:10.920Z,6.20
2023-02-14T22:31:41.647Z,6.20
2023-02-14T22:34:11.854Z,6.20
2023-02-14T22:36:39.837Z,6.20
2023-02-14T22:39:09.461Z,6.20
2023-02-14T22:41:38.905Z,6.30
2023-02-14T22:44:07.918Z,6.30
2023-02-14T22:46:37.736Z,6.30
2023-02-14T22:49:06.584Z,6.30
2023-02-14T22:51:36.982Z,6.20
2023-02-14T22:54:07.300Z,5.90
2023-02-14T22:56:39.117Z,5.70
2023-02-14T22:59:09.192Z,5.60
2023-02-14T23:01:37.564Z,5.50
2023-02-14T23:04:06.489Z,5.50
2023-02-14T23:06:36.639Z,5.50
2023-02-14T23:09:05.668Z,5.70
2023-02-14T23:11:35.890Z,5.80
2023-02-14T23:14:23.688Z,5.70
2023-02-14T23:17:21.011Z,5.90
2023-02-14T23:20:06.972Z,6.00
2023-02-14T23:22:37.646Z,6.00
2023-02-14T23:25:08.669Z,5.80
2023-02-14T23:27:38.595Z,5.70
2023-02-14T23:30:09.905Z,5.70
2023-02-14T23:32:38.222Z,5.60
2023-02-14T23:35:07.006Z,5.40
2023-02-14T23:37:35.035Z,5.30
2023-02-14T23:40:03.930Z,5.20
2023-02-14T23:42:32.164Z,5.30
2023-02-14T23:45:20.303Z,5.40
2023-02-14T23:47:50.041Z,5.40
2023-02-14T23:50:18.295Z,5.50
2023-02-14T23:52:46.270Z,5.60
2023-02-14T23:55:14.469Z,5.60
2023-02-14T23:57:42.441Z,5.50
